CYQBCYBG

Guest
Details From CYQB - Quebec Jean Lesage Intl
To CYBG - Bagotville
Flight Number -
Tags Generated
Created
Modified
Stats Distance 94 nm / 175 km
Max Altitude 0 ft / 0 m
Waypoints 2
Social Downloads 2
Likes 0
Share VATSIM

Download

Looking for another format? Having issues loading an existing format? Contact us
Advertisement - Login to hide

Notes

Generated

Route

CYQB CYBG

ID Type Via Altitude Latitude Longitude Leg Dist Tot Dist Heading (true) Name
O CYQB APT - 0 ft / 0 m 46.78883˚ -71.40294˚ - 0 nm - -
O CYBG APT - 0 ft / 0 m 48.33750˚ -70.99639˚ 94 nm 94 nm 10° / 10° -

Altitude Profile

Advertisement - Login to hide

CYQB

Details ICAO CYQB (YQB)
Name Quebec Jean Lesage Intl
Region Canada
Timezone America/Montreal (UTC-5.0)
Stats Elevation 244 ft / 74 m (AMSL)
Location 46.789458° -71.392764°
Runways 2
Magnetic Variation 15.838° W

METAR

CYQB 111900Z 22009KT 30SM FEW050 M11/M18 A2999 RMK SC1 SLP164

Decode

TAF

TAF TAF CYQB 111739Z 1118/1218 22012KT P6SM FEW040 BECMG 1122/1124 26005KT FM120400 VRB03KT P6SM BKN130 BECMG 1206/1208 06010KT FM120800 06010KT P6SM -SN OVC070 FM121100 07015KT 2SM -SN OVC015 FM121300 06017G27KT 1SM -SN BLSN VV008 BECMG 1216/1218 07020G30KT RMK NXT FCST BY 120000Z

Decode

Departure Runways

ID Width Length Bearing (true) Bearing (mag) Surface Threshold Offset Overrun Length
06 150 ft / 46 m 9,020 ft / 2,749 m 44.00° 59.84° Asphalt 0 ft / 0 m 0 ft / 0 m
12 150 ft / 46 m 5,678 ft / 1,731 m 97.58° 113.42° Asphalt 0 ft / 0 m 0 ft / 0 m
24 150 ft / 46 m 9,020 ft / 2,749 m 224.02° 239.86° Asphalt 0 ft / 0 m 0 ft / 0 m
30 150 ft / 46 m 5,678 ft / 1,731 m 277.60° 293.44° Asphalt 0 ft / 0 m 0 ft / 0 m

CYBG

Details ICAO CYBG (YBG)
Name BAGOTVILLE
Region Canada
Timezone America/Montreal (UTC-5.0)
Stats Elevation 522 ft / 159 m (AMSL)
Location 48.331181° -70.994165°
Runways 2
Magnetic Variation 16.558° W

METAR

CYBG 111900Z 36003KT 25SM FEW040 M15/M19 A2999 RMK SC1 SLP172

Decode

TAF

TAF CYBG 111730Z 1118/1218 VRB03KT P6SM FEW040 FM120500 09005KT P6SM FEW120 BKN200 FM121000 09015KT P6SM OVC080 TEMPO 1210/1216 P6SM -SN FM121600 09018KT 4SM -SN BKN040 OVC080 RMK NXT FCST BY 112100Z

Decode

Destination Runways

ID Width Length Bearing (true) Bearing (mag) Surface Threshold Offset Overrun Length
11 150 ft / 46 m 9,907 ft / 3,020 m 90.57° 107.13° Concrete 0 ft / 0 m 0 ft / 0 m
18 150 ft / 46 m 5,923 ft / 1,805 m 163.46° 180.02° Asphalt 0 ft / 0 m 0 ft / 0 m
29 150 ft / 46 m 9,907 ft / 3,020 m 270.60° 287.16° Concrete 0 ft / 0 m 0 ft / 0 m
36 150 ft / 46 m 5,923 ft / 1,805 m 343.46° 0.02° Asphalt 0 ft / 0 m 0 ft / 0 m

Approach Navaids

Runway Type Ident Frequency Range Bearing (true) Bearing (mag) Slope Elevation
29 Localiser IBG 111.50 MHz 25 nm / 46 km 270.98° 287.53° - 520 ft / 158 m (AMSL)
29 Glidescope IBG 111.50 MHz 25 nm / 46 km 290.00° 306.56° 3.00° 520 ft / 158 m (AMSL)

Popular Alternatives